createdAt,value
2018-05-06T00:00:49.537Z,17.10
2018-05-06T00:03:17.830Z,17.10
2018-05-06T00:05:46.109Z,17.10
2018-05-06T00:08:14.392Z,17.10
2018-05-06T00:10:42.670Z,17.10
2018-05-06T00:13:10.916Z,17.00
2018-05-06T00:15:39.953Z,17.00
2018-05-06T00:18:08.201Z,17.00
2018-05-06T00:20:36.469Z,17.00
2018-05-06T00:23:05.500Z,16.80
2018-05-06T00:25:33.740Z,16.80
2018-05-06T00:28:02.763Z,16.80
2018-05-06T00:30:31.061Z,16.80
2018-05-06T00:32:59.328Z,16.70
2018-05-06T00:35:27.620Z,16.60
2018-05-06T00:37:55.877Z,16.60
2018-05-06T00:40:24.117Z,16.50
2018-05-06T00:42:52.379Z,16.50
2018-05-06T00:45:20.617Z,16.40
2018-05-06T00:47:48.927Z,16.40
2018-05-06T00:50:17.167Z,16.30
2018-05-06T00:52:46.190Z,16.20
2018-05-06T00:55:14.432Z,16.20
2018-05-06T00:57:43.481Z,16.20
2018-05-06T01:00:11.719Z,16.20
2018-05-06T01:02:40.853Z,16.10
2018-05-06T01:05:09.096Z,16.10
2018-05-06T01:07:38.132Z,16.10
2018-05-06T01:10:06.373Z,16.10
2018-05-06T01:12:35.534Z,16.00
2018-05-06T01:15:03.780Z,16.00
2018-05-06T01:17:32.064Z,16.10
2018-05-06T01:20:00.329Z,16.00
2018-05-06T01:22:28.625Z,16.00
2018-05-06T01:24:56.880Z,15.90
2018-05-06T01:27:25.128Z,15.90
2018-05-06T01:29:53.389Z,15.80
2018-05-06T01:32:21.633Z,15.80
2018-05-06T01:34:49.884Z,15.70
2018-05-06T01:37:18.919Z,15.50
2018-05-06T01:39:47.236Z,15.40
2018-05-06T01:42:15.468Z,15.50
2018-05-06T01:44:43.724Z,15.40
2018-05-06T01:47:12.032Z,15.40
2018-05-06T01:49:40.288Z,15.30
2018-05-06T01:52:08.539Z,15.20
2018-05-06T01:54:36.818Z,15.20
2018-05-06T01:57:05.044Z,15.10
2018-05-06T01:59:33.291Z,14.90
2018-05-06T02:02:02.306Z,14.90
2018-05-06T02:04:30.611Z,14.90
2018-05-06T02:06:58.853Z,14.90
2018-05-06T02:09:27.889Z,14.80
2018-05-06T02:11:56.134Z,14.80
2018-05-06T02:14:25.158Z,14.70
2018-05-06T02:16:53.393Z,14.70
2018-05-06T02:19:21.716Z,14.60
2018-05-06T02:21:49.959Z,14.60
2018-05-06T02:24:18.968Z,14.50
2018-05-06T02:26:47.990Z,14.60
2018-05-06T02:29:16.220Z,14.50
2018-05-06T02:31:44.482Z,14.50
2018-05-06T02:34:12.738Z,14.50
2018-05-06T02:36:40.993Z,14.50
2018-05-06T02:39:09.237Z,14.50
2018-05-06T02:41:37.585Z,14.50
2018-05-06T02:44:05.827Z,14.30
2018-05-06T02:46:34.170Z,14.30
2018-05-06T02:49:02.400Z,14.30
2018-05-06T02:51:30.660Z,14.30
2018-05-06T02:53:59.685Z,14.20
2018-05-06T02:56:27.958Z,14.20
2018-05-06T02:58:56.205Z,14.20
2018-05-06T03:01:25.232Z,14.10
2018-05-06T03:03:53.525Z,14.10
2018-05-06T03:06:21.805Z,14.20
2018-05-06T03:08:50.186Z,14.20
2018-05-06T03:11:18.464Z,14.10
2018-05-06T03:13:46.740Z,14.10
2018-05-06T03:16:15.006Z,14.00
2018-05-06T03:18:43.252Z,14.10
2018-05-06T03:21:11.584Z,14.10
2018-05-06T03:23:39.832Z,14.00
2018-05-06T03:26:08.863Z,14.00
2018-05-06T03:28:37.167Z,14.00
2018-05-06T03:31:05.432Z,14.00
2018-05-06T03:33:33.698Z,14.00
2018-05-06T03:36:01.983Z,13.90
2018-05-06T03:38:30.232Z,13.90
2018-05-06T03:40:58.479Z,13.90
2018-05-06T03:43:27.502Z,13.90
2018-05-06T03:45:56.508Z,13.90
2018-05-06T03:48:24.757Z,13.80
2018-05-06T03:50:53.764Z,13.90
2018-05-06T03:53:22.792Z,13.90
2018-05-06T03:56:03.052Z,13.80
2018-05-06T03:58:43.056Z,13.80
2018-05-06T04:01:11.385Z,13.80
2018-05-06T04:03:39.672Z,13.70
2018-05-06T04:06:08.052Z,13.70
2018-05-06T04:08:36.328Z,13.70
2018-05-06T04:11:04.569Z,13.60
2018-05-06T04:13:33.590Z,13.50
2018-05-06T04:16:02.589Z,13.40
2018-05-06T04:18:30.848Z,13.40
2018-05-06T04:20:59.852Z,13.40
2018-05-06T04:23:28.984Z,13.30
2018-05-06T04:25:57.274Z,13.30
2018-05-06T04:28:25.539Z,13.30
2018-05-06T04:30:53.777Z,13.30
2018-05-06T04:33:22.821Z,13.10
2018-05-06T04:35:51.058Z,13.10
2018-05-06T04:38:20.100Z,13.20
2018-05-06T04:40:48.349Z,13.20
2018-05-06T04:43:17.367Z,13.20
2018-05-06T04:45:45.613Z,13.20
2018-05-06T04:48:14.646Z,13.30
2018-05-06T04:50:42.927Z,13.30
2018-05-06T04:53:11.176Z,13.30
2018-05-06T04:55:40.234Z,13.40
2018-05-06T04:58:08.597Z,13.40
2018-05-06T05:00:36.876Z,13.40
2018-05-06T05:03:05.114Z,13.40
2018-05-06T05:05:34.144Z,13.60
2018-05-06T05:08:02.427Z,13.50
2018-05-06T05:10:30.684Z,13.60
2018-05-06T05:12:58.988Z,13.70
2018-05-06T05:15:27.249Z,13.80
2018-05-06T05:17:55.495Z,13.90
2018-05-06T05:20:23.755Z,14.00
2018-05-06T05:22:52.012Z,14.20
2018-05-06T05:25:20.264Z,14.40
2018-05-06T05:27:48.570Z,14.50
2018-05-06T05:30:16.830Z,14.70
2018-05-06T05:32:45.077Z,14.90
2018-05-06T05:35:13.445Z,15.10
2018-05-06T05:37:41.699Z,15.30
2018-05-06T05:40:09.952Z,15.50
2018-05-06T05:42:38.211Z,15.60
2018-05-06T05:45:06.474Z,15.80
2018-05-06T05:47:35.735Z,16.00
2018-05-06T05:50:04.126Z,16.10
2018-05-06T05:52:32.392Z,16.30
2018-05-06T05:55:00.683Z,16.40
2018-05-06T05:57:28.938Z,16.70
2018-05-06T05:59:57.184Z,16.80
2018-05-06T06:02:25.429Z,17.00
2018-05-06T06:04:53.686Z,17.20
2018-05-06T06:07:21.939Z,17.40
2018-05-06T06:09:50.982Z,17.90
2018-05-06T06:12:19.229Z,17.80
2018-05-06T06:14:47.529Z,18.20
2018-05-06T06:17:15.797Z,18.50
2018-05-06T06:19:44.068Z,18.80
2018-05-06T06:22:12.376Z,19.10
2018-05-06T06:24:40.793Z,19.40
2018-05-06T06:27:08.917Z,19.80
2018-05-06T06:29:37.256Z,20.10
2018-05-06T06:32:06.752Z,20.60
2018-05-06T06:34:34.977Z,20.60
2018-05-06T06:37:03.231Z,20.80
2018-05-06T06:39:32.272Z,21.00
2018-05-06T06:42:00.528Z,21.00
2018-05-06T06:44:28.828Z,21.10
2018-05-06T06:46:57.113Z,21.10
2018-05-06T06:49:25.388Z,21.20
2018-05-06T06:51:53.673Z,21.10
2018-05-06T06:54:21.947Z,21.00
2018-05-06T06:56:50.200Z,20.90
2018-05-06T06:59:19.237Z,20.60
2018-05-06T07:01:47.501Z,20.60
2018-05-06T07:04:15.784Z,20.50
2018-05-06T07:06:44.066Z,20.40
2018-05-06T07:09:12.313Z,20.40
2018-05-06T07:11:41.345Z,20.40
2018-05-06T07:14:09.604Z,20.40
2018-05-06T07:16:37.858Z,20.50
2018-05-06T07:19:06.903Z,21.10
2018-05-06T07:21:35.175Z,21.10
2018-05-06T07:24:03.453Z,21.40
2018-05-06T07:26:31.730Z,21.80
2018-05-06T07:29:00.069Z,22.30
2018-05-06T07:31:28.436Z,22.70
2018-05-06T07:33:56.664Z,23.00
2018-05-06T07:36:24.900Z,23.40
2018-05-06T07:38:53.238Z,23.60
2018-05-06T07:41:21.517Z,23.80
2018-05-06T07:43:49.890Z,24.10
2018-05-06T07:46:18.899Z,24.40
2018-05-06T07:48:47.136Z,24.40
2018-05-06T07:51:16.157Z,24.70
2018-05-06T07:53:44.460Z,24.70
2018-05-06T07:56:12.719Z,24.90
2018-05-06T07:58:41.017Z,25.00
2018-05-06T08:01:09.532Z,25.10
2018-05-06T08:03:37.792Z,25.40
2018-05-06T08:06:06.046Z,25.60
2018-05-06T08:08:34.293Z,25.80
2018-05-06T08:11:02.549Z,25.90
2018-05-06T08:13:30.781Z,25.80
2018-05-06T08:15:59.044Z,25.90
2018-05-06T08:18:28.048Z,26.40
2018-05-06T08:20:56.377Z,26.40
2018-05-06T08:23:24.620Z,26.40
2018-05-06T08:25:52.918Z,26.70
2018-05-06T08:28:21.195Z,27.00
2018-05-06T08:30:49.452Z,27.40
2018-05-06T08:33:17.756Z,27.60
2018-05-06T08:35:46.026Z,28.00
2018-05-06T08:38:14.266Z,28.30
2018-05-06T08:40:42.513Z,28.90
2018-05-06T08:43:10.871Z,29.70
2018-05-06T08:45:39.160Z,30.30
2018-05-06T08:48:07.436Z,31.00
2018-05-06T08:50:35.681Z,31.70
2018-05-06T08:53:04.713Z,32.40
2018-05-06T08:55:32.950Z,32.40
2018-05-06T08:58:01.992Z,32.70
2018-05-06T09:00:30.224Z,32.60
2018-05-06T09:02:59.252Z,32.80
2018-05-06T09:05:27.545Z,32.80
2018-05-06T09:07:55.816Z,32.80
2018-05-06T09:10:30.105Z,32.10
2018-05-06T09:13:00.061Z,31.40
2018-05-06T09:15:28.314Z,31.40
2018-05-06T09:17:57.337Z,30.50
2018-05-06T09:20:25.723Z,30.50
2018-05-06T09:22:53.997Z,30.10
2018-05-06T09:25:22.335Z,29.70
2018-05-06T09:27:50.568Z,29.30
2018-05-06T09:30:18.841Z,29.00
2018-05-06T09:32:47.119Z,28.60
2018-05-06T09:35:15.368Z,28.10
2018-05-06T09:37:44.387Z,27.60
2018-05-06T09:40:13.392Z,27.30
2018-05-06T09:42:41.647Z,27.30
2018-05-06T09:45:11.023Z,26.90
2018-05-06T09:47:39.696Z,26.90
2018-05-06T09:50:08.515Z,26.50
2018-05-06T09:52:38.285Z,26.20
2018-05-06T09:55:07.011Z,26.10
2018-05-06T09:57:35.912Z,25.80
2018-05-06T10:00:04.696Z,25.70
2018-05-06T10:02:33.285Z,25.50
2018-05-06T10:05:02.613Z,25.60
2018-05-06T10:07:31.176Z,25.50
2018-05-06T10:09:59.863Z,25.40
2018-05-06T10:12:28.500Z,25.30
2018-05-06T10:14:57.187Z,25.20
2018-05-06T10:17:25.756Z,25.20
2018-05-06T10:19:55.072Z,25.20
2018-05-06T10:22:23.553Z,25.20
2018-05-06T10:27:27.234Z,25.20
2018-05-06T10:29:56.035Z,25.20
2018-05-06T10:32:24.725Z,25.30
2018-05-06T10:34:54.131Z,25.20
2018-05-06T10:37:22.700Z,25.20
2018-05-06T10:39:51.245Z,25.30
2018-05-06T10:42:20.022Z,25.20
2018-05-06T10:44:49.445Z,25.30
2018-05-06T10:47:19.833Z,25.30
2018-05-06T10:49:48.522Z,25.30
2018-05-06T10:52:17.074Z,25.40
2018-05-06T10:54:45.590Z,25.40
2018-05-06T10:57:14.189Z,25.40
2018-05-06T10:59:42.608Z,25.40
2018-05-06T11:02:11.251Z,25.40
2018-05-06T11:04:39.692Z,25.40
2018-05-06T11:07:08.421Z,25.40
2018-05-06T11:09:37.588Z,25.50
2018-05-06T11:12:05.845Z,25.40
2018-05-06T11:14:34.085Z,25.50
2018-05-06T11:17:02.344Z,25.50
2018-05-06T11:19:30.588Z,25.50
2018-05-06T11:21:58.854Z,25.50
2018-05-06T11:24:27.866Z,25.50
2018-05-06T11:26:56.136Z,25.50
2018-05-06T11:29:24.388Z,25.60
2018-05-06T11:31:52.622Z,25.60
2018-05-06T11:34:20.898Z,25.60
2018-05-06T11:36:49.140Z,25.60
2018-05-06T11:39:17.400Z,25.60
2018-05-06T11:41:45.646Z,25.60
2018-05-06T11:44:13.901Z,25.60
2018-05-06T11:46:42.189Z,25.60
2018-05-06T11:49:10.470Z,25.60
2018-05-06T11:51:39.034Z,25.60
2018-05-06T11:54:08.398Z,25.70
2018-05-06T11:56:36.885Z,25.70
2018-05-06T11:59:05.367Z,25.70
2018-05-06T12:01:34.423Z,25.80
2018-05-06T12:04:02.684Z,25.70
2018-05-06T12:06:30.921Z,25.80
2018-05-06T12:08:59.175Z,25.80
2018-05-06T12:11:27.428Z,25.90
2018-05-06T12:13:55.737Z,25.80
2018-05-06T12:16:23.982Z,25.80
2018-05-06T12:18:53.133Z,25.80
2018-05-06T12:21:21.378Z,25.70
2018-05-06T12:23:49.657Z,25.80
2018-05-06T12:26:17.925Z,25.90
2018-05-06T12:28:46.185Z,25.90
2018-05-06T12:31:15.232Z,26.00
2018-05-06T12:33:43.526Z,26.00
2018-05-06T12:36:11.766Z,26.10
2018-05-06T12:38:40.067Z,26.10
2018-05-06T12:41:08.325Z,26.10
2018-05-06T12:43:37.336Z,26.10
2018-05-06T12:46:05.590Z,26.10
2018-05-06T12:48:33.844Z,26.10
2018-05-06T12:51:02.110Z,26.00
2018-05-06T12:53:30.402Z,26.00
2018-05-06T12:55:58.659Z,26.10
2018-05-06T12:58:26.903Z,26.10
2018-05-06T13:00:55.166Z,26.10
2018-05-06T13:03:23.416Z,26.20
2018-05-06T13:05:51.677Z,26.00
2018-05-06T13:08:19.912Z,25.90
2018-05-06T13:10:48.169Z,25.90
2018-05-06T13:13:17.183Z,25.90
2018-05-06T13:15:45.455Z,25.90
2018-05-06T13:18:14.483Z,25.80
2018-05-06T13:20:42.740Z,25.80
2018-05-06T13:23:10.990Z,25.90
2018-05-06T13:25:40.037Z,25.90
2018-05-06T13:28:08.357Z,25.90
2018-05-06T13:30:36.605Z,25.90
2018-05-06T13:33:04.877Z,25.80
2018-05-06T13:35:33.165Z,25.80
2018-05-06T13:38:02.275Z,25.70
2018-05-06T13:40:30.509Z,25.70
2018-05-06T13:42:59.536Z,25.60
2018-05-06T13:45:27.781Z,25.60
2018-05-06T13:47:56.819Z,25.60
2018-05-06T13:50:25.061Z,25.60
2018-05-06T13:52:54.090Z,25.60
2018-05-06T13:55:22.385Z,25.60
2018-05-06T13:57:50.644Z,25.60
2018-05-06T14:00:18.934Z,25.40
2018-05-06T14:02:47.211Z,25.50
2018-05-06T14:05:15.441Z,25.40
2018-05-06T14:07:43.709Z,25.40
2018-05-06T14:10:12.048Z,25.40
2018-05-06T14:12:40.314Z,25.40
2018-05-06T14:15:08.615Z,25.40
2018-05-06T14:17:36.864Z,25.40
2018-05-06T14:20:05.304Z,25.40
2018-05-06T14:22:33.580Z,25.40
2018-05-06T14:25:01.922Z,25.40
2018-05-06T14:27:30.332Z,25.40
2018-05-06T14:29:58.657Z,25.50
2018-05-06T14:32:26.885Z,25.50
2018-05-06T14:34:55.123Z,25.50
2018-05-06T14:37:23.412Z,25.50
2018-05-06T14:39:51.640Z,25.50
2018-05-06T14:42:19.902Z,25.50
2018-05-06T14:44:48.157Z,25.50
2018-05-06T14:50:21.454Z,25.40
2018-05-06T14:52:50.493Z,25.40
2018-05-06T14:55:18.768Z,25.40
2018-05-06T14:57:47.033Z,25.40
2018-05-06T15:00:16.329Z,25.30
2018-05-06T15:02:44.624Z,25.30
2018-05-06T15:05:12.915Z,25.30
2018-05-06T15:07:41.153Z,25.30
2018-05-06T15:10:10.183Z,25.30
2018-05-06T15:12:38.460Z,25.30
2018-05-06T15:15:06.718Z,25.30
2018-05-06T15:17:35.792Z,25.20
2018-05-06T15:20:04.131Z,25.20
2018-05-06T15:22:32.372Z,25.30
2018-05-06T15:25:01.396Z,25.20
2018-05-06T15:27:29.696Z,25.20
2018-05-06T15:29:57.965Z,25.20
2018-05-06T15:32:27.132Z,25.20
2018-05-06T15:34:56.150Z,25.30
2018-05-06T15:37:24.542Z,25.30
2018-05-06T15:39:53.344Z,25.30
2018-05-06T15:42:21.608Z,25.30
2018-05-06T15:44:49.892Z,25.40
2018-05-06T15:47:18.160Z,25.40
2018-05-06T15:49:46.804Z,25.40
2018-05-06T15:52:15.274Z,25.40
2018-05-06T15:54:43.879Z,25.40
2018-05-06T15:57:12.252Z,25.30
2018-05-06T15:59:40.791Z,25.40
2018-05-06T16:05:20.996Z,25.20
2018-05-06T16:07:49.245Z,25.20
2018-05-06T16:10:17.500Z,25.20
2018-05-06T16:12:45.741Z,25.20
2018-05-06T16:15:13.991Z,25.20
2018-05-06T16:17:42.338Z,25.20
2018-05-06T16:20:10.721Z,25.10
2018-05-06T16:22:38.986Z,25.00
2018-05-06T16:25:07.253Z,25.00
2018-05-06T16:27:35.508Z,24.90
2018-05-06T16:30:03.810Z,24.90
2018-05-06T16:32:32.064Z,24.80
2018-05-06T16:35:00.305Z,24.80
2018-05-06T16:37:28.577Z,24.70
2018-05-06T16:40:02.995Z,24.80
2018-05-06T16:42:32.553Z,24.80
2018-05-06T16:45:00.828Z,24.70
2018-05-06T16:47:29.111Z,24.70
2018-05-06T16:49:57.422Z,24.60
2018-05-06T16:52:26.042Z,24.50
2018-05-06T16:54:54.625Z,24.50
2018-05-06T16:57:23.253Z,24.50
2018-05-06T16:59:51.900Z,24.50
2018-05-06T17:02:20.374Z,24.40
2018-05-06T17:04:49.592Z,24.40
2018-05-06T17:07:18.789Z,24.30
2018-05-06T17:09:47.562Z,24.30
2018-05-06T17:12:16.168Z,24.20
2018-05-06T17:14:44.503Z,24.20
2018-05-06T17:17:12.799Z,24.20
2018-05-06T17:19:41.040Z,24.20
2018-05-06T17:22:09.380Z,24.10
2018-05-06T17:24:37.615Z,24.10
2018-05-06T17:27:05.904Z,24.10
2018-05-06T17:29:34.167Z,24.10
2018-05-06T17:32:02.423Z,24.00
2018-05-06T17:34:31.430Z,23.80
2018-05-06T17:37:00.452Z,23.80
2018-05-06T17:39:28.693Z,23.80
2018-05-06T17:41:57.730Z,23.80
2018-05-06T17:44:26.009Z,23.70
2018-05-06T17:46:54.293Z,23.80
2018-05-06T17:49:22.577Z,23.70
2018-05-06T17:51:50.834Z,23.60
2018-05-06T17:54:19.139Z,23.50
2018-05-06T17:56:47.408Z,23.50
2018-05-06T17:59:15.658Z,23.40
2018-05-06T18:01:44.753Z,23.30
2018-05-06T18:04:13.003Z,23.30
2018-05-06T18:06:41.251Z,23.20
2018-05-06T18:09:09.509Z,23.10
2018-05-06T18:11:37.811Z,23.10
2018-05-06T18:14:06.088Z,23.10
2018-05-06T18:16:34.397Z,23.10
2018-05-06T18:19:02.683Z,23.10
2018-05-06T18:21:30.966Z,23.00
2018-05-06T18:23:59.226Z,23.10
2018-05-06T18:26:27.503Z,23.00
2018-05-06T18:28:55.789Z,23.00
2018-05-06T18:31:24.056Z,23.00
2018-05-06T18:33:52.365Z,22.90
2018-05-06T18:36:20.592Z,23.00
2018-05-06T18:38:48.845Z,23.10
2018-05-06T18:41:17.888Z,23.00
2018-05-06T18:43:46.201Z,23.00
2018-05-06T18:46:14.426Z,23.00
2018-05-06T18:48:42.693Z,22.90
2018-05-06T18:51:10.943Z,22.80
2018-05-06T18:53:39.318Z,22.80
2018-05-06T18:56:07.538Z,22.80
2018-05-06T18:58:35.836Z,22.80
2018-05-06T19:01:04.096Z,22.70
2018-05-06T19:03:32.333Z,22.60
2018-05-06T19:06:02.104Z,22.50
2018-05-06T19:08:30.445Z,22.50
2018-05-06T19:10:59.480Z,22.40
2018-05-06T19:13:27.723Z,22.40
2018-05-06T19:15:56.741Z,22.20
2018-05-06T19:18:25.086Z,22.20
2018-05-06T19:20:53.390Z,22.20
2018-05-06T19:23:21.612Z,22.10
2018-05-06T19:25:50.585Z,22.00
2018-05-06T19:28:18.825Z,21.90
2018-05-06T19:30:47.077Z,21.90
2018-05-06T19:33:15.336Z,21.80
2018-05-06T19:35:43.657Z,21.70
2018-05-06T19:38:11.876Z,21.70
2018-05-06T19:40:40.150Z,21.60
2018-05-06T19:43:09.171Z,21.50
2018-05-06T19:45:37.490Z,21.50
2018-05-06T19:48:05.757Z,21.50
2018-05-06T19:50:34.363Z,21.50
2018-05-06T19:53:02.850Z,21.40
2018-05-06T19:55:31.336Z,21.30
2018-05-06T19:58:00.022Z,21.30
2018-05-06T20:00:28.545Z,21.30
2018-05-06T20:02:57.917Z,21.10
2018-05-06T20:05:26.342Z,21.10
2018-05-06T20:07:54.592Z,21.10
2018-05-06T20:10:23.616Z,21.00
2018-05-06T20:12:51.870Z,21.00
2018-05-06T20:15:20.191Z,21.00
2018-05-06T20:17:48.460Z,20.90
2018-05-06T20:20:16.757Z,21.00
2018-05-06T20:22:45.013Z,21.00
2018-05-06T20:25:14.022Z,20.90
2018-05-06T20:27:42.363Z,20.80
2018-05-06T20:30:10.594Z,20.80
2018-05-06T20:32:38.927Z,20.80
2018-05-06T20:35:07.176Z,20.70
2018-05-06T20:37:35.486Z,20.70
2018-05-06T20:40:03.709Z,20.60
2018-05-06T20:42:33.009Z,20.60
2018-05-06T20:45:01.247Z,20.60
2018-05-06T20:47:29.504Z,20.50
2018-05-06T20:49:57.811Z,20.50
2018-05-06T20:52:26.976Z,20.40
2018-05-06T20:54:55.268Z,20.40
2018-05-06T20:57:23.822Z,20.40
2018-05-06T20:59:52.071Z,20.30
2018-05-06T21:02:20.329Z,20.30
2018-05-06T21:04:48.572Z,20.20
2018-05-06T21:07:16.851Z,20.10
2018-05-06T21:09:45.092Z,20.10
2018-05-06T21:12:14.125Z,19.90
2018-05-06T21:14:42.413Z,19.90
2018-05-06T21:17:10.688Z,19.90
2018-05-06T21:19:38.972Z,19.90
2018-05-06T21:22:08.225Z,19.80
2018-05-06T21:24:36.517Z,19.80
2018-05-06T21:27:06.349Z,19.60
2018-05-06T21:29:34.649Z,19.70
2018-05-06T21:32:03.072Z,19.60
2018-05-06T21:34:31.332Z,19.50
2018-05-06T21:36:59.573Z,19.40
2018-05-06T21:39:28.589Z,19.30
2018-05-06T21:41:56.835Z,19.20
2018-05-06T21:44:25.909Z,19.10
2018-05-06T21:46:54.120Z,19.10
2018-05-06T21:49:23.497Z,19.10
2018-05-06T21:51:52.537Z,19.10
2018-05-06T21:54:20.800Z,19.00
2018-05-06T21:56:49.805Z,18.90
2018-05-06T21:59:18.832Z,18.90
2018-05-06T22:01:47.113Z,18.90
2018-05-06T22:04:15.385Z,18.90
2018-05-06T22:06:43.625Z,18.80
2018-05-06T22:09:12.665Z,18.60
2018-05-06T22:11:40.987Z,18.60
2018-05-06T22:14:09.232Z,18.60
2018-05-06T22:16:37.479Z,18.50
2018-05-06T22:19:05.783Z,18.50
2018-05-06T22:21:34.088Z,18.50
2018-05-06T22:24:02.331Z,18.50
2018-05-06T22:26:30.581Z,18.50
2018-05-06T22:28:59.583Z,18.50
2018-05-06T22:31:28.612Z,18.40
2018-05-06T22:33:56.887Z,18.40
2018-05-06T22:36:25.167Z,18.40
2018-05-06T22:38:53.416Z,18.50
2018-05-06T22:41:22.428Z,18.40
2018-05-06T22:43:50.676Z,18.30
2018-05-06T22:46:18.930Z,18.30
2018-05-06T22:48:47.184Z,18.30
2018-05-06T22:51:15.440Z,18.30
2018-05-06T22:53:44.441Z,18.20
2018-05-06T22:56:12.697Z,18.20
2018-05-06T22:58:40.944Z,18.20
2018-05-06T23:01:09.209Z,18.20
2018-05-06T23:03:37.494Z,18.20
2018-05-06T23:06:05.748Z,18.10
2018-05-06T23:08:34.041Z,18.10
2018-05-06T23:11:02.329Z,18.10
2018-05-06T23:13:30.573Z,18.00
2018-05-06T23:15:59.612Z,17.90
2018-05-06T23:18:27.878Z,17.90
2018-05-06T23:20:56.231Z,17.90
2018-05-06T23:23:24.416Z,17.90
2018-05-06T23:25:52.673Z,17.80
2018-05-06T23:28:21.009Z,17.80
2018-05-06T23:30:49.272Z,17.80
2018-05-06T23:33:17.523Z,17.70
2018-05-06T23:35:46.533Z,17.80
2018-05-06T23:38:15.544Z,17.80
2018-05-06T23:40:43.780Z,17.70
2018-05-06T23:43:12.056Z,17.70
2018-05-06T23:45:40.298Z,17.70
2018-05-06T23:48:08.576Z,17.70
2018-05-06T23:50:36.811Z,17.70
2018-05-06T23:53:05.837Z,17.70
2018-05-06T23:55:34.124Z,17.60
2018-05-06T23:58:02.389Z,17.60
